Time;durP1;ratioP1;P1;durP2;ratioP2;P2;SDS_P1;SDS_P2;PMS_P1;PMS_P2;Temp;Humidity;BMP_temperature;BMP_pressure;BME280_temperature;BME280_humidity;BME280_pressure;Samples;Min_cycle;Max_cycle;Signal;HPM_P1;HPM_P2
2023/05/19 00:01:23;;;;;;;4.85;2.45;;;11.30;1.00;;;;;;7368903;19;20188;-72
2023/05/19 00:03:56;;;;;;;6.00;2.67;;;11.30;1.00;;;;;;7364236;19;20066;-72
2023/05/19 00:06:30;;;;;;;5.70;2.80;;;11.20;1.00;;;;;;7368128;19;20014;-72
2023/05/19 00:09:02;;;;;;;4.82;2.35;;;11.20;1.00;;;;;;7369384;19;20463;-72
2023/05/19 00:11:35;;;;;;;7.60;2.63;;;11.10;1.00;;;;;;7369600;19;20014;-73
2023/05/19 00:14:08;;;;;;;5.15;2.75;;;11.10;1.00;;;;;;7386557;19;20011;-72
2023/05/19 00:16:41;;;;;;;9.68;3.08;;;11.10;1.00;;;;;;7370091;19;20436;-72
2023/05/19 00:19:11;;;;;;;8.18;2.58;;;11.10;1.00;;;;;;7368184;19;20329;-73
2023/05/19 00:21:41;;;;;;;7.47;2.42;;;11.10;1.00;;;;;;7367703;19;20750;-72
2023/05/19 00:24:11;;;;;;;5.35;2.70;;;11.10;1.00;;;;;;7364130;19;20018;-73
2023/05/19 00:26:44;;;;;;;9.27;2.50;;;11.10;1.00;;;;;;7367798;19;20044;-73
2023/05/19 00:29:17;;;;;;;7.10;2.50;;;11.10;1.00;;;;;;7368961;19;20031;-73
2023/05/19 00:31:47;;;;;;;8.15;2.72;;;11.00;1.00;;;;;;7390785;19;20477;-73
2023/05/19 00:34:17;;;;;;;8.45;2.55;;;10.90;1.00;;;;;;7364025;19;20066;-73
2023/05/19 00:36:47;;;;;;;8.52;2.33;;;11.00;1.00;;;;;;7368766;19;20010;-72
2023/05/19 00:39:17;;;;;;;3.53;2.20;;;11.00;1.00;;;;;;7368501;19;20346;-72
2023/05/19 00:41:49;;;;;;;6.00;2.40;;;10.90;1.00;;;;;;7368114;19;20066;-73
2023/05/19 00:44:19;;;;;;;9.20;2.88;;;10.90;1.00;;;;;;7364284;19;20282;-74
2023/05/19 00:46:49;;;;;;;8.48;2.72;;;10.90;1.00;;;;;;7390997;19;20365;-73
2023/05/19 00:49:19;;;;;;;4.28;2.55;;;11.00;1.00;;;;;;7367481;19;20010;-73
2023/05/19 00:51:50;;;;;;;5.90;2.60;;;10.90;1.00;;;;;;7367324;19;20012;-73
2023/05/19 00:54:21;;;;;;;5.80;2.75;;;10.90;1.00;;;;;;7364692;19;20015;-71
2023/05/19 00:56:57;;;;;;;8.90;3.10;;;10.80;1.00;;;;;;7368648;19;20010;-72
2023/05/19 00:59:27;;;;;;;6.72;2.40;;;10.80;1.00;;;;;;7367679;19;20054;-73
2023/05/19 01:01:57;;;;;;;6.22;2.42;;;10.80;1.00;;;;;;7388972;19;20025;-73
2023/05/19 01:04:28;;;;;;;9.80;3.00;;;10.70;1.00;;;;;;7363502;19;20014;-72
2023/05/19 01:06:58;;;;;;;8.93;2.85;;;10.70;1.00;;;;;;7366289;19;20450;-72
2023/05/19 01:09:29;;;;;;;4.80;2.28;;;10.70;1.00;;;;;;7366375;19;20025;-72
2023/05/19 01:12:02;;;;;;;7.05;2.95;;;10.60;1.00;;;;;;7366762;19;20395;-74
2023/05/19 01:14:32;;;;;;;6.87;2.53;;;10.60;1.00;;;;;;7362704;19;20042;-71
2023/05/19 01:17:09;;;;;;;6.90;2.50;;;10.60;1.00;;;;;;7386584;19;20377;-73
2023/05/19 01:20:00;;;;;;;5.78;2.40;;;10.60;1.00;;;;;;7366877;19;20083;-73
2023/05/19 01:23:00;;;;;;;11.02;3.03;;;10.60;1.00;;;;;;7366950;19;20034;-73
2023/05/19 01:25:49;;;;;;;6.53;3.03;;;10.60;1.00;;;;;;7363584;19;20018;-73
2023/05/19 01:29:05;;;;;;;7.90;2.97;;;10.60;1.00;;;;;;7367220;19;20011;-73
2023/05/19 01:31:39;;;;;;;7.97;2.72;;;10.50;1.00;;;;;;7366658;19;20026;-74
2023/05/19 01:34:10;;;;;;;7.93;3.42;;;10.50;1.00;;;;;;7364292;19;20478;-73
2023/05/19 01:36:43;;;;;;;6.45;2.60;;;10.50;1.00;;;;;;7365841;19;20369;-74
2023/05/19 01:39:14;;;;;;;8.02;2.97;;;10.50;1.00;;;;;;7366438;19;20011;-73
2023/05/19 01:41:47;;;;;;;6.80;3.10;;;10.50;1.00;;;;;;7367417;19;20007;-72
2023/05/19 01:44:17;;;;;;;8.75;3.08;;;10.50;1.00;;;;;;7363000;19;20381;-72
2023/05/19 01:46:51;;;;;;;5.32;3.00;;;10.50;1.00;;;;;;7387822;19;20010;-72
2023/05/19 01:49:20;;;;;;;5.53;2.90;;;10.40;1.00;;;;;;7365243;19;20467;-72
2023/05/19 01:51:51;;;;;;;7.50;2.85;;;10.40;1.00;;;;;;7365689;19;20062;-73
2023/05/19 01:54:20;;;;;;;6.65;2.63;;;10.40;1.00;;;;;;7362870;19;20045;-73
2023/05/19 01:56:59;;;;;;;5.22;2.47;;;10.50;1.00;;;;;;7362891;19;20015;-72
2023/05/19 01:59:43;;;;;;;5.88;2.70;;;10.50;1.00;;;;;;7365104;19;20018;-72
2023/05/19 02:02:27;;;;;;;7.38;3.13;;;10.50;1.00;;;;;;7367577;19;20023;-72
2023/05/19 02:05:04;;;;;;;4.57;2.90;;;10.50;1.00;;;;;;7383976;19;20048;-72
2023/05/19 02:07:45;;;;;;;4.88;2.88;;;10.60;1.00;;;;;;7365971;19;20892;-73
2023/05/19 02:10:23;;;;;;;5.15;2.75;;;10.60;1.00;;;;;;7364285;19;20393;-73
2023/05/19 02:12:55;;;;;;;8.35;2.90;;;10.50;1.00;;;;;;7364547;19;20018;-73
2023/05/19 02:15:30;;;;;;;8.10;3.55;;;10.50;1.00;;;;;;7362219;19;20010;-73
2023/05/19 02:18:04;;;;;;;7.75;3.30;;;10.50;1.00;;;;;;7365633;19;20395;-73
2023/05/19 02:20:34;;;;;;;6.13;2.75;;;10.30;1.00;;;;;;7364354;19;20024;-73
2023/05/19 02:23:04;;;;;;;8.82;3.50;;;10.20;1.00;;;;;;7386780;19;20006;-73
2023/05/19 02:25:34;;;;;;;7.80;3.10;;;10.20;1.00;;;;;;7363712;19;20078;-73
2023/05/19 02:28:05;;;;;;;5.82;2.80;;;10.10;1.00;;;;;;7369107;19;20022;-73
2023/05/19 02:30:35;;;;;;;3.97;2.92;;;10.20;1.00;;;;;;7373124;19;20041;-73
2023/05/19 02:33:10;;;;;;;9.93;3.08;;;10.20;1.00;;;;;;7370822;19;20040;-73
2023/05/19 02:35:40;;;;;;;6.20;2.90;;;10.30;1.00;;;;;;7370764;19;20486;-73
2023/05/19 02:38:10;;;;;;;6.90;3.17;;;10.20;1.00;;;;;;7390463;19;20538;-71
2023/05/19 02:40:40;;;;;;;7.22;3.20;;;10.20;1.00;;;;;;7391800;19;20506;-73
2023/05/19 02:43:09;;;;;;;8.20;3.10;;;10.00;1.00;;;;;;7371226;19;20090;-73
2023/05/19 02:45:39;;;;;;;8.52;3.60;;;9.90;1.00;;;;;;7370555;19;20022;-73
2023/05/19 02:48:12;;;;;;;5.88;3.28;;;9.90;1.00;;;;;;7371392;19;20035;-73
2023/05/19 02:50:42;;;;;;;7.97;3.50;;;9.90;1.00;;;;;;7371023;19;20017;-73
2023/05/19 02:53:12;;;;;;;6.10;3.00;;;9.90;1.00;;;;;;7372317;19;20419;-72
2023/05/19 02:55:42;;;;;;;8.45;3.53;;;9.80;1.00;;;;;;7391012;19;20013;-73
2023/05/19 02:58:12;;;;;;;7.07;2.95;;;9.90;1.00;;;;;;7372751;19;20098;-73
2023/05/19 03:00:43;;;;;;;10.93;3.20;;;9.90;1.00;;;;;;7369013;19;20006;-73
2023/05/19 03:03:16;;;;;;;7.60;3.15;;;9.90;1.00;;;;;;7370868;19;20018;-73
2023/05/19 03:05:47;;;;;;;9.00;3.15;;;9.90;1.00;;;;;;7370293;19;20006;-73
2023/05/19 03:08:17;;;;;;;6.53;3.00;;;10.00;1.00;;;;;;7371623;19;20027;-73
2023/05/19 03:10:47;;;;;;;5.90;3.17;;;10.00;1.00;;;;;;7389766;19;20490;-73
2023/05/19 03:13:18;;;;;;;5.70;3.20;;;9.90;1.00;;;;;;7371169;19;20090;-72
2023/05/19 03:15:49;;;;;;;7.20;3.15;;;9.90;1.00;;;;;;7368507;19;20014;-73
2023/05/19 03:18:25;;;;;;;8.20;3.08;;;9.90;1.00;;;;;;7370284;19;20014;-73
2023/05/19 03:20:55;;;;;;;9.65;3.50;;;9.80;1.00;;;;;;7368338;19;20013;-73
2023/05/19 03:23:26;;;;;;;5.38;2.90;;;9.80;1.00;;;;;;7369201;19;20147;-73
2023/05/19 03:25:56;;;;;;;7.15;3.38;;;9.80;1.00;;;;;;7392709;19;20092;-72
2023/05/19 03:28:26;;;;;;;6.38;3.30;;;9.70;1.00;;;;;;7370612;19;20082;-73
2023/05/19 03:30:56;;;;;;;6.15;3.42;;;9.70;1.00;;;;;;7368665;19;20117;-73
2023/05/19 03:33:29;;;;;;;8.70;3.63;;;9.70;1.00;;;;;;7368478;19;20010;-73
2023/05/19 03:35:59;;;;;;;9.52;3.22;;;9.70;1.00;;;;;;7369928;19;20093;-73
2023/05/19 03:38:29;;;;;;;7.68;3.30;;;9.70;1.00;;;;;;7370236;19;20018;-73
2023/05/19 03:40:59;;;;;;;9.45;3.35;;;9.60;1.00;;;;;;7389336;19;20019;-73
2023/05/19 03:43:29;;;;;;;8.52;3.90;;;9.60;1.00;;;;;;7367489;19;20396;-72
2023/05/19 03:46:00;;;;;;;6.25;2.97;;;9.60;1.00;;;;;;7370629;19;20091;-72
2023/05/19 03:48:33;;;;;;;7.63;3.58;;;9.60;1.00;;;;;;7370842;19;20014;-72
2023/05/19 03:51:03;;;;;;;9.60;3.05;;;9.60;1.00;;;;;;7366726;19;20435;-72
2023/05/19 03:53:33;;;;;;;8.93;3.67;;;9.50;1.00;;;;;;7367831;19;20014;-72
2023/05/19 03:56:03;;;;;;;5.90;3.28;;;9.50;1.00;;;;;;7391509;19;20012;-72
2023/05/19 03:58:33;;;;;;;9.65;3.88;;;9.40;1.00;;;;;;7369517;19;20006;-72
2023/05/19 04:01:03;;;;;;;7.28;3.58;;;9.40;1.00;;;;;;7368580;19;20023;-72
2023/05/19 04:03:35;;;;;;;6.75;3.35;;;9.30;1.00;;;;;;7367719;19;20010;-73
2023/05/19 04:06:06;;;;;;;6.57;3.70;;;9.40;1.00;;;;;;7367470;19;20356;-72
2023/05/19 04:08:35;;;;;;;8.32;3.50;;;9.40;1.00;;;;;;7370585;19;20024;-72
2023/05/19 04:11:06;;;;;;;8.10;3.67;;;9.50;1.00;;;;;;7388288;19;20022;-72
2023/05/19 04:13:36;;;;;;;9.43;3.40;;;9.50;1.00;;;;;;7367541;19;20014;-72
2023/05/19 04:16:07;;;;;;;7.00;3.60;;;9.50;1.00;;;;;;7368912;19;20088;-72
2023/05/19 04:18:39;;;;;;;7.40;3.83;;;9.50;1.00;;;;;;7369769;19;20419;-72
2023/05/19 04:21:09;;;;;;;6.97;3.75;;;9.40;1.00;;;;;;7366453;19;20034;-72
2023/05/19 04:23:39;;;;;;;11.18;3.50;;;9.50;1.00;;;;;;7367348;19;20283;-71
2023/05/19 04:26:09;;;;;;;10.70;3.63;;;9.50;1.00;;;;;;7390333;19;20081;-72
2023/05/19 04:28:41;;;;;;;6.22;3.72;;;9.60;1.00;;;;;;7369964;19;20463;-72
2023/05/19 04:31:11;;;;;;;6.68;3.35;;;9.60;1.00;;;;;;7368239;19;20461;-71
2023/05/19 04:33:44;;;;;;;4.18;2.88;;;9.60;1.00;;;;;;7365625;19;20010;-71
2023/05/19 04:36:17;;;;;;;8.77;3.47;;;9.50;1.00;;;;;;7369677;19;20006;-72
2023/05/19 04:38:47;;;;;;;6.80;3.50;;;9.50;1.00;;;;;;7367459;19;20010;-72
2023/05/19 04:41:17;;;;;;;8.13;3.78;;;9.70;1.00;;;;;;7366765;19;20014;-72
2023/05/19 04:43:47;;;;;;;8.98;3.40;;;9.90;1.00;;;;;;7387038;19;20011;-72
2023/05/19 04:46:17;;;;;;;7.47;3.38;;;10.00;1.00;;;;;;7368273;19;20038;-73
2023/05/19 04:48:49;;;;;;;10.82;3.28;;;10.20;1.00;;;;;;7367815;19;20097;-73
2023/05/19 04:51:19;;;;;;;6.38;3.53;;;10.40;1.00;;;;;;7367341;19;20462;-73
2023/05/19 04:53:50;;;;;;;7.78;3.13;;;10.60;1.00;;;;;;7363842;19;20038;-73
2023/05/19 04:56:20;;;;;;;8.57;3.20;;;10.80;1.00;;;;;;7368260;19;20458;-73
2023/05/19 04:58:52;;;;;;;8.23;3.50;;;10.90;1.00;;;;;;7389005;19;20013;-73
2023/05/19 05:01:24;;;;;;;8.88;2.80;;;10.80;1.00;;;;;;7366226;19;20078;-72
2023/05/19 05:03:57;;;;;;;8.25;3.03;;;11.00;1.00;;;;;;7362829;19;20601;-72
2023/05/19 05:06:28;;;;;;;5.20;2.78;;;11.10;1.00;;;;;;7368143;19;20015;-72
2023/05/19 05:08:58;;;;;;;8.38;3.03;;;11.30;1.00;;;;;;7367213;19;20014;-72
2023/05/19 05:11:29;;;;;;;8.77;4.82;;;11.70;1.00;;;;;;7368107;19;20010;-73
2023/05/19 05:13:59;;;;;;;7.20;2.75;;;11.80;1.00;;;;;;7385683;19;20082;-73
2023/05/19 05:16:30;;;;;;;8.63;2.95;;;11.80;1.00;;;;;;7366959;19;20632;-73
2023/05/19 05:19:04;;;;;;;10.52;2.97;;;12.80;1.00;;;;;;7366777;19;20014;-72
2023/05/19 05:21:34;;;;;;;4.70;2.78;;;13.20;1.00;;;;;;7366991;19;20034;-73
2023/05/19 05:24:05;;;;;;;10.68;2.58;;;13.20;1.00;;;;;;7363552;19;20041;-72
2023/05/19 05:26:36;;;;;;;8.55;3.10;;;13.10;1.00;;;;;;7367564;19;20497;-73
2023/05/19 05:29:06;;;;;;;8.18;3.15;;;13.40;1.00;;;;;;7388127;19;20081;-72
2023/05/19 05:31:36;;;;;;;8.25;3.08;;;12.50;1.00;;;;;;7366705;19;20078;-73
2023/05/19 05:34:09;;;;;;;8.27;3.30;;;13.40;1.00;;;;;;7361708;19;20078;-73
2023/05/19 05:36:39;;;;;;;8.57;2.75;;;14.10;1.00;;;;;;7367222;19;20188;-73
2023/05/19 05:39:09;;;;;;;9.00;2.85;;;13.20;1.00;;;;;;7365997;19;20080;-72
2023/05/19 05:41:39;;;;;;;9.48;3.13;;;13.60;1.00;;;;;;7365298;19;20347;-72
2023/05/19 05:44:09;;;;;;;9.88;2.88;;;14.20;1.00;;;;;;7384538;19;20010;-72
2023/05/19 05:46:39;;;;;;;10.25;3.10;;;14.20;1.00;;;;;;7367512;19;20489;-72
2023/05/19 05:49:13;;;;;;;8.40;2.78;;;14.60;1.00;;;;;;7366012;19;20362;-72
2023/05/19 05:51:43;;;;;;;6.20;2.83;;;14.70;1.00;;;;;;7366313;19;20045;-72
2023/05/19 05:54:31;;;;;;;8.60;3.63;;;14.40;1.00;;;;;;7362263;19;20040;-72
2023/05/19 05:57:02;;;;;;;9.38;3.50;;;13.40;1.00;;;;;;7366101;19;20035;-73
2023/05/19 05:59:32;;;;;;;8.23;3.22;;;13.20;1.00;;;;;;7365585;19;20015;-72
2023/05/19 06:02:03;;;;;;;10.77;3.78;;;13.00;1.00;;;;;;7390426;19;20069;-73
2023/05/19 06:04:35;;;;;;;6.05;2.67;;;13.10;1.00;;;;;;7369104;19;20532;-73
2023/05/19 06:07:05;;;;;;;5.38;2.90;;;13.20;1.00;;;;;;7373893;19;20010;-74
2023/05/19 06:09:36;;;;;;;10.65;3.30;;;13.50;1.00;;;;;;7371942;19;20014;-70
2023/05/19 06:12:07;;;;;;;7.28;2.90;;;14.20;1.00;;;;;;7373525;19;20478;-73
2023/05/19 06:14:36;;;;;;;8.20;2.92;;;14.70;1.00;;;;;;7368961;19;20470;-72
2023/05/19 06:17:06;;;;;;;6.93;3.22;;;14.70;1.00;;;;;;7394534;19;20090;-73
2023/05/19 06:19:39;;;;;;;8.63;3.20;;;15.20;1.00;;;;;;7372450;19;20014;-72
2023/05/19 06:22:09;;;;;;;9.90;3.47;;;14.90;1.00;;;;;;7373022;19;20032;-72
2023/05/19 06:24:39;;;;;;;7.78;2.92;;;14.60;1.00;;;;;;7368856;19;20486;-71
2023/05/19 06:27:09;;;;;;;7.40;2.90;;;14.70;1.00;;;;;;7372110;19;20384;-71
2023/05/19 06:29:39;;;;;;;6.22;2.80;;;14.40;1.00;;;;;;7372940;19;20011;-72
2023/05/19 06:32:08;;;;;;;9.52;3.20;;;14.90;1.00;;;;;;7395009;19;20019;-72
2023/05/19 06:34:41;;;;;;;7.38;2.97;;;15.80;1.00;;;;;;7369374;19;20447;-73
2023/05/19 06:37:13;;;;;;;7.53;3.05;;;15.10;1.00;;;;;;7371129;19;20370;-72
2023/05/19 06:39:43;;;;;;;7.55;3.13;;;14.50;1.00;;;;;;7369751;19;20011;-73
2023/05/19 06:42:13;;;;;;;8.98;2.92;;;14.50;1.00;;;;;;7372401;19;20014;-73
2023/05/19 06:44:43;;;;;;;12.13;3.42;;;14.40;1.00;;;;;;7370113;19;20034;-73
2023/05/19 06:47:13;;;;;;;7.03;3.00;;;14.40;1.00;;;;;;7369426;19;20498;-73
2023/05/19 06:49:49;;;;;;;9.50;3.20;;;14.60;1.00;;;;;;7393983;19;20371;-71
2023/05/19 06:52:19;;;;;;;6.28;3.13;;;14.20;1.00;;;;;;7371406;19;20073;-71
2023/05/19 06:54:49;;;;;;;9.55;3.22;;;13.80;1.00;;;;;;7366450;19;20466;-71
2023/05/19 06:57:19;;;;;;;9.70;3.65;;;13.40;1.00;;;;;;7370336;19;20011;-73
2023/05/19 06:59:49;;;;;;;10.27;3.47;;;13.60;1.00;;;;;;7369794;19;20006;-72
2023/05/19 07:02:19;;;;;;;5.85;3.25;;;13.80;1.00;;;;;;7372421;19;20010;-72
2023/05/19 07:04:52;;;;;;;5.30;3.03;;;13.80;1.00;;;;;;7389639;19;20340;-72
2023/05/19 07:07:22;;;;;;;7.85;2.70;;;14.20;1.00;;;;;;7370251;19;20002;-72
2023/05/19 07:09:52;;;;;;;5.95;3.00;;;14.40;1.00;;;;;;7369827;19;20007;-72
2023/05/19 07:12:22;;;;;;;19.35;3.53;;;14.40;1.00;;;;;;7370396;19;20340;-71
2023/05/19 07:14:54;;;;;;;6.40;3.03;;;14.60;1.00;;;;;;7367058;19;20006;-72
2023/05/19 07:17:24;;;;;;;9.32;3.30;;;14.30;1.00;;;;;;7369719;19;20010;-72
2023/05/19 07:19:57;;;;;;;9.98;3.00;;;14.50;1.00;;;;;;7389512;19;20013;-72
2023/05/19 07:22:27;;;;;;;5.78;2.80;;;14.20;1.00;;;;;;7371466;19;20394;-72
2023/05/19 07:24:57;;;;;;;6.70;2.88;;;14.30;1.00;;;;;;7367739;19;20003;-72
2023/05/19 07:27:27;;;;;;;7.05;2.90;;;14.40;1.00;;;;;;7369644;19;20089;-72
2023/05/19 07:29:57;;;;;;;8.65;2.90;;;14.40;1.00;;;;;;7369124;19;20462;-72
2023/05/19 07:32:27;;;;;;;7.88;3.25;;;14.20;1.00;;;;;;7371461;19;20014;-71
2023/05/19 07:35:00;;;;;;;5.57;3.10;;;14.10;1.00;;;;;;7388271;19;20006;-73
2023/05/19 07:37:30;;;;;;;6.95;2.83;;;14.10;1.00;;;;;;7369861;19;20077;-72
2023/05/19 07:40:00;;;;;;;9.43;3.08;;;14.30;1.00;;;;;;7368074;19;20024;-72
2023/05/19 07:42:30;;;;;;;8.50;3.13;;;14.10;1.00;;;;;;7370366;19;20025;-73
2023/05/19 07:45:00;;;;;;;7.07;2.83;;;14.20;1.00;;;;;;7367108;19;20006;-73
2023/05/19 07:47:31;;;;;;;8.70;3.50;;;14.20;1.00;;;;;;7373130;19;20153;-71
2023/05/19 07:50:04;;;;;;;9.35;2.90;;;14.20;1.00;;;;;;7388405;19;20013;-73
2023/05/19 07:52:34;;;;;;;6.97;2.97;;;14.20;1.00;;;;;;7368807;19;20035;-73
2023/05/19 07:55:04;;;;;;;8.63;2.97;;;14.20;1.00;;;;;;7363866;19;20094;-73
2023/05/19 07:57:34;;;;;;;9.63;3.72;;;14.20;1.00;;;;;;7367022;19;20078;-72
2023/05/19 08:00:06;;;;;;;9.75;3.30;;;14.00;1.00;;;;;;7365664;19;20443;-72
2023/05/19 08:02:36;;;;;;;7.05;2.95;;;14.40;1.00;;;;;;7370025;19;20017;-73
2023/05/19 08:05:10;;;;;;;8.40;3.17;;;14.50;1.00;;;;;;7388515;19;20042;-72
2023/05/19 08:07:40;;;;;;;8.15;3.25;;;14.60;1.00;;;;;;7369599;19;20023;-72
2023/05/19 08:10:10;;;;;;;10.23;3.38;;;14.70;1.00;;;;;;7369379;19;20055;-72
2023/05/19 08:12:40;;;;;;;6.05;2.83;;;14.90;1.00;;;;;;7374794;19;20002;-72
2023/05/19 08:15:12;;;;;;;6.50;3.03;;;15.10;1.00;;;;;;7373041;19;20010;-73
2023/05/19 08:17:42;;;;;;;7.53;3.50;;;15.00;1.00;;;;;;7377576;19;20423;-73
2023/05/19 08:20:14;;;;;;;6.40;3.15;;;14.80;1.00;;;;;;7372956;19;20015;-72
2023/05/19 08:22:44;;;;;;;8.85;3.50;;;14.50;1.00;;;;;;7394409;19;20050;-73
2023/05/19 08:25:14;;;;;;;6.15;3.33;;;14.50;1.00;;;;;;7369065;19;20027;-72
2023/05/19 08:27:44;;;;;;;7.85;3.25;;;14.70;1.00;;;;;;7372190;19;20014;-73
2023/05/19 08:30:15;;;;;;;5.32;3.25;;;14.70;1.00;;;;;;7372189;19;20017;-72
2023/05/19 08:32:45;;;;;;;5.97;3.00;;;14.30;1.00;;;;;;7377597;19;20458;-72
2023/05/19 08:35:18;;;;;;;7.05;3.20;;;14.20;1.00;;;;;;7371211;19;20031;-72
2023/05/19 08:37:48;;;;;;;10.88;3.63;;;14.20;1.00;;;;;;7395226;19;20026;-73
2023/05/19 08:40:19;;;;;;;9.25;3.33;;;14.10;1.00;;;;;;7365966;19;20066;-72
2023/05/19 08:42:50;;;;;;;5.75;2.85;;;14.30;1.00;;;;;;7369698;19;20006;-73
2023/05/19 08:45:20;;;;;;;7.35;3.38;;;14.10;1.00;;;;;;7367969;19;20014;-73
2023/05/19 08:47:52;;;;;;;8.85;3.75;;;14.20;1.00;;;;;;7369030;19;20438;-71
2023/05/19 08:50:30;;;;;;;9.27;3.38;;;14.30;1.00;;;;;;7364534;19;20358;-73
2023/05/19 08:53:05;;;;;;;6.55;3.33;;;14.30;1.00;;;;;;7389595;19;20019;-71
2023/05/19 08:55:42;;;;;;;8.65;3.42;;;14.30;1.00;;;;;;7365278;19;20074;-71
2023/05/19 08:58:15;;;;;;;6.35;3.40;;;14.20;1.00;;;;;;7366509;19;20014;-71
2023/05/19 09:00:46;;;;;;;7.53;3.50;;;14.30;1.00;;;;;;7365998;19;20010;-72
2023/05/19 09:03:17;;;;;;;10.13;3.35;;;14.20;1.00;;;;;;7366939;19;20002;-72
2023/05/19 09:05:54;;;;;;;7.68;3.22;;;14.10;1.00;;;;;;7367478;19;20031;-72
2023/05/19 09:08:24;;;;;;;7.72;3.17;;;14.10;1.00;;;;;;7368614;19;20006;-71
2023/05/19 09:10:54;;;;;;;7.82;3.55;;;14.30;1.00;;;;;;7386849;19;20777;-72
2023/05/19 09:13:25;;;;;;;7.57;3.28;;;14.20;1.00;;;;;;7365248;19;20018;-70
2023/05/19 09:15:55;;;;;;;6.10;2.97;;;14.30;1.00;;;;;;7366528;19;20113;-71
2023/05/19 09:18:26;;;;;;;6.68;3.65;;;14.20;1.00;;;;;;7367727;19;20466;-71
2023/05/19 09:21:01;;;;;;;9.65;3.72;;;14.20;1.00;;;;;;7365124;19;20010;-71
2023/05/19 09:23:34;;;;;;;9.05;3.15;;;14.60;1.00;;;;;;7365425;19;20022;-73
2023/05/19 09:26:05;;;;;;;9.32;3.55;;;14.50;1.00;;;;;;7385208;19;20114;-72
2023/05/19 09:28:38;;;;;;;6.82;3.22;;;14.50;1.00;;;;;;7365494;19;20007;-72
2023/05/19 09:31:09;;;;;;;15.10;3.35;;;14.20;1.00;;;;;;7365328;19;20010;-72
2023/05/19 09:33:41;;;;;;;6.15;3.47;;;14.30;1.00;;;;;;7364169;19;20038;-72
2023/05/19 09:36:17;;;;;;;10.63;3.40;;;14.40;1.00;;;;;;7369964;19;20010;-71
2023/05/19 09:38:48;;;;;;;11.60;3.60;;;14.40;1.00;;;;;;7373233;19;20010;-72
2023/05/19 09:41:18;;;;;;;6.88;3.20;;;14.60;1.00;;;;;;7370646;19;20014;-72
2023/05/19 09:43:56;;;;;;;7.65;3.13;;;14.70;1.00;;;;;;7390868;19;20011;-72
2023/05/19 09:46:28;;;;;;;10.90;3.47;;;14.80;1.00;;;;;;7372458;19;20013;-71
2023/05/19 09:48:59;;;;;;;7.70;3.50;;;14.70;1.00;;;;;;7373240;19;20380;-72
2023/05/19 09:51:32;;;;;;;6.05;3.20;;;14.80;1.00;;;;;;7373937;19;20006;-75
2023/05/19 09:54:03;;;;;;;10.35;3.70;;;14.60;1.00;;;;;;7368704;19;20459;-72
2023/05/19 09:56:35;;;;;;;10.30;3.40;;;14.60;1.00;;;;;;7372508;19;20014;-72
2023/05/19 09:59:06;;;;;;;11.30;3.53;;;14.60;1.00;;;;;;7394486;19;20093;-72
2023/05/19 10:01:39;;;;;;;6.78;3.17;;;14.70;1.00;;;;;;7369599;19;20007;-72
2023/05/19 10:04:09;;;;;;;8.05;3.50;;;14.90;1.00;;;;;;7369670;19;20042;-73
2023/05/19 10:06:46;;;;;;;9.67;3.47;;;15.00;1.00;;;;;;7373092;19;20010;-73
2023/05/19 10:09:17;;;;;;;19.77;3.60;;;15.00;1.00;;;;;;7371352;19;20853;-72
2023/05/19 10:11:47;;;;;;;12.63;3.95;;;14.90;1.00;;;;;;7372274;19;20012;-72
2023/05/19 10:14:19;;;;;;;5.78;3.38;;;14.90;1.00;;;;;;7370047;19;20038;-72
2023/05/19 10:16:56;;;;;;;9.05;3.13;;;15.00;1.00;;;;;;7392961;19;20022;-73
2023/05/19 10:19:28;;;;;;;9.95;3.53;;;15.10;1.00;;;;;;7372828;19;20006;-72
2023/05/19 10:22:01;;;;;;;11.70;3.42;;;15.20;1.00;;;;;;7370941;19;20010;-72
2023/05/19 10:24:30;;;;;;;7.57;3.00;;;15.10;1.00;;;;;;7370034;19;20521;-72
2023/05/19 10:27:06;;;;;;;6.45;3.08;;;15.10;1.00;;;;;;7371827;19;20106;-73
2023/05/19 10:29:41;;;;;;;7.70;3.20;;;15.20;1.00;;;;;;7371633;19;20022;-73
2023/05/19 10:32:16;;;;;;;5.10;2.80;;;15.20;1.00;;;;;;7384915;19;20102;-73
2023/05/19 10:35:07;;;;;;;11.40;3.92;;;15.40;1.00;;;;;;7390750;19;20610;-73
2023/05/19 10:37:47;;;;;;;10.23;3.15;;;15.50;1.00;;;;;;7374479;19;20086;-72
2023/05/19 10:40:23;;;;;;;9.45;3.10;;;15.50;1.00;;;;;;7368284;19;20454;-73
2023/05/19 10:43:06;;;;;;;6.57;3.55;;;15.10;1.00;;;;;;7371997;19;20018;-73
2023/05/19 10:45:49;;;;;;;8.07;3.33;;;15.10;1.00;;;;;;7369533;19;20018;-73
2023/05/19 10:48:22;;;;;;;11.02;3.97;;;15.00;1.00;;;;;;7374183;19;20129;-72
2023/05/19 10:50:55;;;;;;;8.30;3.50;;;15.10;1.00;;;;;;7392709;19;20034;-72
2023/05/19 10:53:33;;;;;;;6.38;2.83;;;15.20;1.00;;;;;;7392558;19;20014;-72
2023/05/19 10:56:06;;;;;;;7.28;3.13;;;15.20;1.00;;;;;;7396096;19;20010;-72
2023/05/19 10:58:40;;;;;;;8.63;3.30;;;15.30;1.00;;;;;;7371842;19;20074;-72
2023/05/19 11:01:14;;;;;;;9.27;3.42;;;15.50;1.00;;;;;;7367681;19;20017;-71
2023/05/19 11:03:50;;;;;;;5.60;3.67;;;15.40;1.00;;;;;;7368827;19;20498;-73
2023/05/19 11:06:28;;;;;;;6.90;3.20;;;15.30;1.00;;;;;;7366806;19;20014;-72
2023/05/19 11:09:04;;;;;;;6.43;3.53;;;15.30;1.00;;;;;;7371844;19;20038;-72
2023/05/19 11:11:47;;;;;;;7.05;3.13;;;15.40;1.00;;;;;;7370855;19;20045;-73
2023/05/19 11:14:20;;;;;;;6.95;3.22;;;15.40;1.00;;;;;;7369056;19;20035;-73
2023/05/19 11:16:51;;;;;;;7.55;3.70;;;15.50;1.00;;;;;;7388422;19;20091;-73
2023/05/19 11:19:26;;;;;;;6.95;3.03;;;15.50;1.00;;;;;;7368454;19;20048;-72
2023/05/19 11:21:58;;;;;;;7.82;3.38;;;15.60;1.00;;;;;;7369236;19;20006;-74
2023/05/19 11:24:50;;;;;;;8.95;3.50;;;15.50;1.00;;;;;;7369692;19;20074;-74
2023/05/19 11:27:27;;;;;;;5.40;3.47;;;15.50;1.00;;;;;;7370113;19;20011;-73
2023/05/19 11:29:58;;;;;;;5.93;3.25;;;15.50;1.00;;;;;;7370013;19;20475;-74
2023/05/19 11:32:32;;;;;;;9.85;3.47;;;15.50;1.00;;;;;;7370621;19;20014;-72
2023/05/19 11:35:03;;;;;;;11.23;3.38;;;15.60;1.00;;;;;;7388732;19;20014;-74
2023/05/19 11:37:34;;;;;;;7.18;3.38;;;15.50;1.00;;;;;;7369737;19;20018;-73
2023/05/19 11:40:08;;;;;;;5.63;3.03;;;15.50;1.00;;;;;;7367028;19;20018;-72
2023/05/19 11:42:38;;;;;;;8.18;3.17;;;15.60;1.00;;;;;;7369859;19;20093;-73
2023/05/19 11:45:10;;;;;;;6.95;3.35;;;15.70;1.00;;;;;;7368467;19;20486;-73
2023/05/19 11:47:40;;;;;;;9.38;3.75;;;15.70;1.00;;;;;;7368901;19;20015;-73
2023/05/19 11:50:30;;;;;;;5.80;3.17;;;15.60;1.00;;;;;;7368802;19;20023;-73
2023/05/19 11:53:02;;;;;;;6.43;3.45;;;15.70;1.00;;;;;;7390241;19;20039;-73
2023/05/19 11:55:35;;;;;;;7.47;3.70;;;15.70;1.00;;;;;;7368374;19;20007;-73
2023/05/19 11:58:06;;;;;;;7.35;3.40;;;15.90;1.00;;;;;;7368988;19;20010;-73
2023/05/19 12:00:38;;;;;;;6.97;2.67;;;16.10;1.00;;;;;;7365791;19;20014;-72
2023/05/19 12:03:10;;;;;;;7.50;3.63;;;16.40;1.00;;;;;;7368289;19;20870;-73
2023/05/19 12:05:45;;;;;;;10.10;3.47;;;16.60;1.00;;;;;;7368987;19;20086;-73
2023/05/19 12:08:18;;;;;;;8.25;3.45;;;16.30;1.00;;;;;;7368333;19;20018;-73
2023/05/19 12:10:55;;;;;;;6.90;3.38;;;16.20;1.00;;;;;;7388304;19;20458;-72
2023/05/19 12:13:25;;;;;;;5.05;3.00;;;15.90;1.00;;;;;;7367090;19;20018;-72
2023/05/19 12:15:55;;;;;;;10.55;3.63;;;15.80;1.00;;;;;;7366214;19;20078;-73
2023/05/19 12:18:25;;;;;;;7.82;3.78;;;15.80;1.00;;;;;;7366753;19;20011;-71
2023/05/19 12:20:55;;;;;;;6.22;3.38;;;15.80;1.00;;;;;;7366279;19;20010;-73
2023/05/19 12:23:26;;;;;;;8.10;3.47;;;15.80;1.00;;;;;;7363947;19;20838;-72
2023/05/19 12:25:59;;;;;;;13.32;3.75;;;15.80;1.00;;;;;;7389666;19;20010;-73
2023/05/19 12:28:31;;;;;;;11.98;4.60;;;15.80;1.00;;;;;;7366709;19;20010;-73
2023/05/19 12:31:03;;;;;;;9.18;3.53;;;16.00;1.00;;;;;;7366931;19;20034;-72
2023/05/19 12:33:34;;;;;;;6.90;3.67;;;15.70;1.00;;;;;;7364500;19;20376;-73
2023/05/19 12:36:05;;;;;;;9.18;3.58;;;15.80;1.00;;;;;;7366743;19;20494;-74
2023/05/19 12:38:36;;;;;;;7.70;3.33;;;15.60;1.00;;;;;;7364735;19;20023;-72
2023/05/19 12:41:08;;;;;;;7.20;3.85;;;15.20;1.00;;;;;;7387772;19;20163;-73
2023/05/19 12:43:38;;;;;;;6.70;3.70;;;15.50;1.00;;;;;;7363684;19;20450;-73
2023/05/19 12:46:12;;;;;;;11.15;4.00;;;15.50;1.00;;;;;;7367715;19;20007;-74
2023/05/19 12:48:43;;;;;;;7.20;3.47;;;15.60;1.00;;;;;;7367278;19;20017;-72
2023/05/19 12:51:17;;;;;;;8.65;3.67;;;15.60;1.00;;;;;;7366164;19;20006;-74
2023/05/19 12:53:47;;;;;;;6.43;3.30;;;15.40;1.00;;;;;;7360005;19;20014;-73
2023/05/19 12:56:20;;;;;;;7.47;3.05;;;15.50;1.00;;;;;;7367129;19;20010;-72
2023/05/19 12:58:56;;;;;;;5.50;3.38;;;15.30;1.00;;;;;;7383883;19;20358;-73
2023/05/19 13:01:26;;;;;;;7.28;3.42;;;15.40;1.00;;;;;;7362925;19;20011;-73
2023/05/19 13:03:56;;;;;;;7.78;3.22;;;15.80;1.00;;;;;;7362037;19;20485;-73
2023/05/19 13:06:26;;;;;;;5.75;2.97;;;15.70;1.00;;;;;;7363747;19;20007;-73
2023/05/19 13:08:56;;;;;;;7.57;3.53;;;15.80;1.00;;;;;;7363564;19;20370;-73
2023/05/19 13:11:28;;;;;;;7.43;3.60;;;15.60;1.00;;;;;;7365043;19;20515;-72
2023/05/19 13:13:58;;;;;;;12.43;3.53;;;15.40;1.00;;;;;;7384966;19;20530;-73
2023/05/19 13:16:29;;;;;;;9.85;3.55;;;15.30;1.00;;;;;;7362293;19;20006;-73
2023/05/19 13:18:59;;;;;;;8.50;3.72;;;15.30;1.00;;;;;;7364893;19;20089;-74
2023/05/19 13:21:30;;;;;;;6.82;3.80;;;15.50;1.00;;;;;;7363189;19;20420;-73
2023/05/19 13:24:00;;;;;;;8.50;3.38;;;15.50;1.00;;;;;;7361059;19;20011;-73